Time;durP1;ratioP1;P1;durP2;ratioP2;P2;SDS_P1;SDS_P2;PMS_P1;PMS_P2;Temp;Humidity;BMP_temperature;BMP_pressure;BME280_temperature;BME280_humidity;BME280_pressure;Samples;Min_cycle;Max_cycle;Signal;HPM_P1;HPM_P2
2021/10/03 00:02:29;;;;;;;0.93;0.93;;;17.30;89.20;;;;;;4981697;28;20225;-82
2021/10/03 00:05:01;;;;;;;0.67;0.60;;;17.40;89.60;;;;;;4982678;28;20190;-82
2021/10/03 00:07:30;;;;;;;1.80;1.50;;;17.40;89.80;;;;;;5010628;28;20209;-82
2021/10/03 00:09:57;;;;;;;2.97;1.47;;;17.40;89.90;;;;;;5002938;28;20216;-82
2021/10/03 00:12:24;;;;;;;1.17;1.07;;;17.40;89.90;;;;;;5003522;28;20223;-83
2021/10/03 00:14:51;;;;;;;2.90;1.80;;;17.40;89.90;;;;;;5001352;28;20216;-82
2021/10/03 00:17:19;;;;;;;1.43;1.17;;;17.40;89.80;;;;;;5001605;28;20655;-82
2021/10/03 00:19:46;;;;;;;0.83;0.83;;;17.40;89.80;;;;;;5001545;28;20231;-82
2021/10/03 00:22:13;;;;;;;1.27;1.23;;;17.40;89.80;;;;;;5000307;28;20231;-82
2021/10/03 00:24:40;;;;;;;0.30;0.30;;;17.50;89.90;;;;;;5001483;28;20212;-82
2021/10/03 00:27:08;;;;;;;0.20;0.20;;;17.50;89.90;;;;;;5001969;28;20624;-82
2021/10/03 00:29:35;;;;;;;1.90;0.53;;;17.50;89.70;;;;;;5002261;28;20212;-82
2021/10/03 00:32:04;;;;;;;0.30;0.30;;;17.50;89.70;;;;;;5001515;28;20208;-82
2021/10/03 00:34:32;;;;;;;2.03;0.77;;;17.50;89.70;;;;;;5000941;28;20217;-82
2021/10/03 00:36:59;;;;;;;4.27;0.40;;;17.50;89.80;;;;;;5001474;28;20235;-82
2021/10/03 00:39:26;;;;;;;0.47;0.47;;;17.50;89.90;;;;;;5001653;28;20223;-82
2021/10/03 00:41:54;;;;;;;0.23;0.23;;;17.50;90.00;;;;;;5001256;28;20232;-82
2021/10/03 00:44:21;;;;;;;0.23;0.23;;;17.50;89.90;;;;;;4999924;28;20220;-83
2021/10/03 00:46:49;;;;;;;0.83;0.83;;;17.50;89.70;;;;;;5001504;28;20216;-82
2021/10/03 00:49:16;;;;;;;0.40;0.40;;;17.50;89.60;;;;;;5000738;28;20224;-82
2021/10/03 00:51:44;;;;;;;0.30;0.30;;;17.40;89.50;;;;;;5001375;28;20254;-82
2021/10/03 00:54:11;;;;;;;1.47;1.37;;;17.40;89.40;;;;;;4999933;28;20227;-82
2021/10/03 00:56:40;;;;;;;1.60;1.40;;;17.30;89.40;;;;;;4999807;28;20284;-83
2021/10/03 00:59:07;;;;;;;1.73;1.67;;;17.30;89.40;;;;;;5000708;28;20223;-82
2021/10/03 01:01:34;;;;;;;1.97;1.80;;;17.20;89.60;;;;;;5000882;28;20232;-82
2021/10/03 01:04:02;;;;;;;1.40;1.30;;;17.20;89.80;;;;;;5000419;28;20220;-82
2021/10/03 01:06:29;;;;;;;1.27;0.80;;;17.20;89.90;;;;;;5000988;28;20558;-82
2021/10/03 01:08:56;;;;;;;0.23;0.23;;;17.10;89.90;;;;;;5000265;28;20214;-82
2021/10/03 01:11:24;;;;;;;0.50;0.50;;;17.10;89.80;;;;;;5000480;28;20213;-83
2021/10/03 01:13:51;;;;;;;1.23;1.07;;;17.10;89.80;;;;;;5000225;28;20215;-83
2021/10/03 01:16:18;;;;;;;0.37;0.37;;;17.10;89.70;;;;;;5000812;28;20188;-83
2021/10/03 01:18:46;;;;;;;0.73;0.73;;;17.10;89.60;;;;;;5000555;28;20282;-82
2021/10/03 01:21:13;;;;;;;1.53;0.73;;;17.00;89.40;;;;;;5000778;28;20522;-83
2021/10/03 01:23:42;;;;;;;1.60;0.93;;;17.00;89.50;;;;;;5000922;28;20236;-82
2021/10/03 01:26:10;;;;;;;0.10;0.10;;;17.00;89.40;;;;;;5001424;28;20542;-83
2021/10/03 01:28:37;;;;;;;0.80;0.80;;;16.90;89.40;;;;;;5001883;28;20299;-82
2021/10/03 01:31:09;;;;;;;0.70;0.50;;;16.90;89.40;;;;;;5001196;28;20204;-83
2021/10/03 01:33:37;;;;;;;0.30;0.30;;;16.80;89.40;;;;;;4999478;28;20216;-83
2021/10/03 01:36:09;;;;;;;1.53;1.43;;;16.80;89.50;;;;;;5000267;28;20645;-82
2021/10/03 01:38:37;;;;;;;0.60;0.60;;;16.80;89.50;;;;;;4998782;28;20289;-82
2021/10/03 01:41:05;;;;;;;1.90;1.33;;;16.80;89.60;;;;;;4999869;28;20228;-82
2021/10/03 01:43:33;;;;;;;2.40;1.10;;;16.80;89.50;;;;;;4998849;28;20239;-82
2021/10/03 01:46:01;;;;;;;0.80;0.80;;;16.80;89.50;;;;;;5000098;28;20213;-82
2021/10/03 01:48:43;;;;;;;0.50;0.50;;;16.70;89.50;;;;;;4999041;28;20239;-82
2021/10/03 01:51:11;;;;;;;4.03;1.27;;;16.70;89.60;;;;;;4999647;28;20200;-82
2021/10/03 01:53:41;;;;;;;0.63;0.63;;;16.70;89.60;;;;;;4998566;28;20223;-82
2021/10/03 01:56:11;;;;;;;0.73;0.73;;;16.70;89.60;;;;;;4998301;28;20220;-82
2021/10/03 01:58:44;;;;;;;0.83;0.83;;;16.60;89.50;;;;;;5017120;28;20278;-82
2021/10/03 02:01:19;;;;;;;2.23;2.00;;;16.60;89.50;;;;;;5001388;28;20258;-82
2021/10/03 02:03:47;;;;;;;1.03;0.70;;;16.50;89.60;;;;;;4996994;28;20778;-82
2021/10/03 02:06:14;;;;;;;1.90;1.03;;;16.40;89.70;;;;;;4999088;28;20212;-82
2021/10/03 02:08:42;;;;;;;0.73;0.73;;;16.40;89.90;;;;;;5000032;28;20213;-81
2021/10/03 02:11:09;;;;;;;0.50;0.50;;;16.40;90.00;;;;;;5000103;28;20219;-82
2021/10/03 02:13:36;;;;;;;2.17;1.50;;;16.30;90.00;;;;;;5000381;28;20304;-82
2021/10/03 02:16:04;;;;;;;2.10;0.67;;;16.40;90.00;;;;;;5000448;28;20212;-82
2021/10/03 02:18:35;;;;;;;3.20;0.93;;;16.40;90.10;;;;;;5000287;28;20218;-82
2021/10/03 02:21:04;;;;;;;1.60;1.43;;;16.30;90.10;;;;;;5000329;28;20256;-82
2021/10/03 02:23:31;;;;;;;1.07;1.07;;;16.30;90.20;;;;;;5000181;28;20244;-82
2021/10/03 02:25:59;;;;;;;1.00;0.93;;;16.30;90.20;;;;;;5000611;28;20213;-82
2021/10/03 02:28:27;;;;;;;0.10;0.10;;;16.30;90.20;;;;;;4999571;28;20214;-82
2021/10/03 02:30:58;;;;;;;1.77;1.67;;;16.30;90.30;;;;;;5000141;28;20554;-82
2021/10/03 02:33:25;;;;;;;0.30;0.30;;;16.30;90.30;;;;;;4999071;28;20220;-82
2021/10/03 02:35:53;;;;;;;3.20;1.07;;;16.30;90.30;;;;;;4999244;28;20216;-82
2021/10/03 02:38:22;;;;;;;8.30;1.47;;;16.30;90.20;;;;;;4999525;28;20208;-82
2021/10/03 02:40:52;;;;;;;0.50;0.50;;;16.40;90.20;;;;;;4999455;28;20212;-83
2021/10/03 02:43:19;;;;;;;0.70;0.70;;;16.30;90.10;;;;;;4999836;28;20235;-82
2021/10/03 02:45:50;;;;;;;0.50;0.50;;;16.30;90.10;;;;;;4998706;28;20209;-82
2021/10/03 02:48:19;;;;;;;0.20;0.20;;;16.30;90.10;;;;;;4998271;28;20197;-82
2021/10/03 02:50:48;;;;;;;1.60;1.40;;;16.30;90.10;;;;;;4998715;28;20204;-82
2021/10/03 02:53:17;;;;;;;0.27;0.27;;;16.30;90.20;;;;;;4997641;28;20227;-81
2021/10/03 02:55:44;;;;;;;0.50;0.50;;;16.30;90.20;;;;;;4998638;28;20231;-82
2021/10/03 02:58:11;;;;;;;0.30;0.30;;;16.30;90.60;;;;;;4997116;28;20244;-82
2021/10/03 03:00:41;;;;;;;0.40;0.40;;;16.30;90.30;;;;;;4997658;28;20212;-82
2021/10/03 03:03:08;;;;;;;1.27;1.23;;;16.20;90.20;;;;;;4997167;28;20247;-81
2021/10/03 03:05:36;;;;;;;1.90;1.57;;;16.20;90.20;;;;;;4997473;28;20228;-82
2021/10/03 03:08:04;;;;;;;3.37;1.63;;;16.10;90.10;;;;;;4997716;28;20200;-81
2021/10/03 03:10:32;;;;;;;2.10;0.97;;;16.10;90.10;;;;;;5000133;28;20695;-82
2021/10/03 03:13:00;;;;;;;0.43;0.43;;;16.10;90.20;;;;;;5002050;28;20212;-82
2021/10/03 03:15:27;;;;;;;0.80;0.80;;;16.10;90.20;;;;;;5002272;28;20204;-82
2021/10/03 03:17:54;;;;;;;1.47;1.23;;;16.10;90.10;;;;;;5002445;28;20629;-82
2021/10/03 03:20:21;;;;;;;2.17;1.97;;;16.00;90.10;;;;;;5002542;28;20216;-81
2021/10/03 03:22:49;;;;;;;0.70;0.70;;;16.00;90.20;;;;;;5001989;28;20236;-82
2021/10/03 03:25:17;;;;;;;4.47;2.00;;;16.00;90.60;;;;;;5002985;28;20208;-82
2021/10/03 03:27:44;;;;;;;4.87;1.93;;;16.00;90.30;;;;;;5002284;28;20652;-82
2021/10/03 03:30:12;;;;;;;2.43;1.07;;;16.00;90.30;;;;;;5003371;28;20295;-82
2021/10/03 03:32:39;;;;;;;0.70;0.70;;;15.90;90.30;;;;;;5002043;28;20216;-82
2021/10/03 03:35:08;;;;;;;5.97;1.23;;;15.90;90.30;;;;;;5001764;28;20227;-82
2021/10/03 03:37:36;;;;;;;1.27;1.27;;;15.90;90.20;;;;;;5002722;28;20208;-81
2021/10/03 03:40:06;;;;;;;0.37;0.37;;;15.80;90.30;;;;;;5001789;28;20213;-81
2021/10/03 03:42:33;;;;;;;0.50;0.50;;;15.70;90.30;;;;;;5002591;28;20220;-82
2021/10/03 03:45:00;;;;;;;0.83;0.83;;;15.70;90.40;;;;;;5003496;28;20208;-82
2021/10/03 03:47:27;;;;;;;0.60;0.60;;;15.70;90.40;;;;;;5002045;28;20201;-82
2021/10/03 03:49:54;;;;;;;0.83;0.83;;;15.70;90.30;;;;;;5002462;28;20680;-82
2021/10/03 03:52:21;;;;;;;0.40;0.40;;;15.70;90.30;;;;;;5002246;28;20243;-81
2021/10/03 03:54:48;;;;;;;2.03;1.10;;;15.70;90.40;;;;;;5001268;28;20308;-81
2021/10/03 03:57:15;;;;;;;2.00;0.63;;;15.70;90.50;;;;;;5001802;28;20299;-82
2021/10/03 03:59:42;;;;;;;0.80;0.67;;;15.70;90.50;;;;;;5003068;28;20231;-81
2021/10/03 04:02:10;;;;;;;1.80;1.43;;;15.70;90.50;;;;;;5002166;28;20267;-82
2021/10/03 04:04:37;;;;;;;0.63;0.63;;;15.60;90.50;;;;;;5003156;28;20276;-82
2021/10/03 04:07:04;;;;;;;1.23;1.17;;;15.60;90.50;;;;;;5003038;28;20218;-82
2021/10/03 04:09:32;;;;;;;1.07;1.07;;;15.60;90.60;;;;;;5001155;28;20212;-81
2021/10/03 04:11:59;;;;;;;3.13;1.30;;;15.50;90.60;;;;;;5001289;28;20209;-82
2021/10/03 04:14:26;;;;;;;2.93;1.47;;;15.50;90.70;;;;;;5001360;28;20247;-81
2021/10/03 04:16:55;;;;;;;0.83;0.83;;;15.50;90.70;;;;;;5001428;28;20227;-81
2021/10/03 04:19:22;;;;;;;0.97;0.87;;;15.50;90.70;;;;;;5000823;28;20219;-81
2021/10/03 04:21:49;;;;;;;6.50;2.23;;;15.50;90.80;;;;;;5000985;28;20212;-81
2021/10/03 04:24:16;;;;;;;0.70;0.70;;;15.50;90.80;;;;;;5000884;28;20294;-81
2021/10/03 04:26:43;;;;;;;1.40;1.30;;;15.50;90.70;;;;;;5001375;28;20204;-82
2021/10/03 04:29:10;;;;;;;1.13;1.13;;;15.40;90.70;;;;;;5002532;28;20200;-81
2021/10/03 04:31:37;;;;;;;1.33;1.23;;;15.40;90.70;;;;;;5001659;28;20208;-82
2021/10/03 04:34:04;;;;;;;3.30;1.20;;;15.50;90.70;;;;;;5001815;28;20216;-82
2021/10/03 04:36:31;;;;;;;10.73;0.73;;;15.40;90.70;;;;;;5003154;28;20212;-82
2021/10/03 04:38:58;;;;;;;0.47;0.47;;;15.40;90.60;;;;;;5001796;28;20675;-82
2021/10/03 04:41:25;;;;;;;0.33;0.33;;;15.40;90.60;;;;;;5000579;28;20232;-81
2021/10/03 04:43:52;;;;;;;0.90;0.90;;;15.30;90.50;;;;;;5000338;28;20224;-81
2021/10/03 04:46:20;;;;;;;2.20;1.63;;;15.30;90.50;;;;;;5000655;28;20209;-81
2021/10/03 04:48:47;;;;;;;0.93;0.60;;;15.30;90.50;;;;;;5002031;28;20270;-81
2021/10/03 04:51:14;;;;;;;0.43;0.43;;;15.30;90.50;;;;;;5000773;28;20239;-82
2021/10/03 04:53:42;;;;;;;1.90;0.97;;;15.30;90.40;;;;;;5000397;28;20216;-81
2021/10/03 04:56:10;;;;;;;1.10;1.07;;;15.40;90.40;;;;;;5000433;28;20217;-81
2021/10/03 04:58:37;;;;;;;0.30;0.30;;;15.40;90.40;;;;;;5016768;28;20501;-81
2021/10/03 05:01:04;;;;;;;0.83;0.83;;;15.40;90.40;;;;;;5000211;28;20533;-81
2021/10/03 05:03:35;;;;;;;6.77;1.60;;;15.40;90.30;;;;;;5000693;28;20294;-81
2021/10/03 05:06:03;;;;;;;1.60;1.20;;;15.50;90.30;;;;;;4999559;28;20216;-82
2021/10/03 05:08:30;;;;;;;7.73;0.67;;;15.50;90.30;;;;;;4999331;28;20215;-81
2021/10/03 05:10:57;;;;;;;1.30;1.20;;;15.40;90.20;;;;;;4999410;28;20213;-82
2021/10/03 05:13:24;;;;;;;1.57;1.47;;;15.40;90.30;;;;;;4999125;28;20232;-82
2021/10/03 05:15:52;;;;;;;1.83;1.53;;;15.40;90.30;;;;;;4999602;28;20208;-82
2021/10/03 05:18:19;;;;;;;3.03;2.80;;;15.40;90.30;;;;;;4999881;28;20216;-82
2021/10/03 05:20:46;;;;;;;8.30;1.23;;;15.40;90.30;;;;;;4999716;28;20229;-81
2021/10/03 05:23:13;;;;;;;0.33;0.33;;;15.40;90.30;;;;;;5000550;28;20564;-81
2021/10/03 05:25:40;;;;;;;1.33;1.10;;;15.30;90.30;;;;;;4999946;28;20531;-82
2021/10/03 05:28:07;;;;;;;3.63;1.73;;;15.40;90.30;;;;;;4999923;28;20200;-81
2021/10/03 05:30:34;;;;;;;2.20;2.00;;;15.30;90.20;;;;;;4998763;28;20624;-82
2021/10/03 05:33:02;;;;;;;0.90;0.90;;;15.30;90.30;;;;;;4999900;28;20220;-81
2021/10/03 05:35:29;;;;;;;0.90;0.90;;;15.30;90.40;;;;;;4999651;28;20222;-82
2021/10/03 05:37:56;;;;;;;0.97;0.97;;;15.30;90.40;;;;;;4999272;28;20551;-81
2021/10/03 05:40:23;;;;;;;0.60;0.60;;;15.30;90.50;;;;;;4998766;28;20212;-82
2021/10/03 05:42:50;;;;;;;1.20;1.10;;;15.30;90.50;;;;;;4998608;28;20232;-81
2021/10/03 05:45:17;;;;;;;0.77;0.77;;;15.30;90.60;;;;;;5000183;28;20223;-81
2021/10/03 05:47:44;;;;;;;1.33;1.23;;;15.30;90.60;;;;;;4998898;28;20270;-82
2021/10/03 05:50:12;;;;;;;1.00;0.90;;;15.40;90.60;;;;;;4998437;28;20197;-82
2021/10/03 05:52:39;;;;;;;1.93;1.33;;;15.50;90.50;;;;;;4998660;28;20251;-81
2021/10/03 05:55:07;;;;;;;0.60;0.60;;;15.50;90.40;;;;;;4999549;28;20216;-81
2021/10/03 05:57:34;;;;;;;3.93;1.27;;;15.60;90.40;;;;;;4998280;28;20236;-82
2021/10/03 06:00:03;;;;;;;0.77;0.77;;;15.70;90.30;;;;;;5014683;28;20216;-81
2021/10/03 06:02:31;;;;;;;1.33;1.23;;;15.80;90.20;;;;;;4998129;28;20220;-82
2021/10/03 06:04:58;;;;;;;1.20;1.07;;;15.80;90.10;;;;;;4998854;28;20264;-81
2021/10/03 06:07:26;;;;;;;1.90;1.73;;;15.90;90.10;;;;;;4999681;28;20271;-82
2021/10/03 06:09:53;;;;;;;1.27;1.27;;;15.90;90.00;;;;;;4999494;28;20246;-82
2021/10/03 06:12:20;;;;;;;2.17;2.07;;;16.00;90.00;;;;;;4999089;28;20219;-82
2021/10/03 06:14:47;;;;;;;0.77;0.77;;;16.10;89.90;;;;;;4999147;28;20208;-82
2021/10/03 06:17:14;;;;;;;1.83;1.70;;;16.20;89.70;;;;;;4999495;28;20212;-82
2021/10/03 06:19:41;;;;;;;1.17;1.03;;;16.30;89.70;;;;;;4998601;28;20231;-82
2021/10/03 06:22:08;;;;;;;1.10;1.10;;;16.40;89.60;;;;;;4997994;28;20316;-82
2021/10/03 06:24:36;;;;;;;0.70;0.70;;;16.40;89.60;;;;;;4997400;28;20240;-82
2021/10/03 06:27:03;;;;;;;3.47;2.20;;;16.50;89.50;;;;;;4996443;28;20216;-82
2021/10/03 06:29:31;;;;;;;1.67;1.57;;;16.60;89.40;;;;;;4997077;28;20235;-82
2021/10/03 06:31:58;;;;;;;0.47;0.47;;;16.70;89.50;;;;;;4997523;28;20212;-82
2021/10/03 06:34:25;;;;;;;0.17;0.17;;;16.80;89.50;;;;;;5012269;28;20212;-82
2021/10/03 06:36:52;;;;;;;1.67;1.60;;;16.90;89.40;;;;;;5012579;28;20204;-82
2021/10/03 06:39:19;;;;;;;0.30;0.30;;;17.00;89.40;;;;;;4999469;28;20220;-82
2021/10/03 06:41:46;;;;;;;1.23;0.57;;;17.10;89.30;;;;;;5000143;28;20224;-82
2021/10/03 06:44:14;;;;;;;0.40;0.40;;;17.20;89.40;;;;;;5003143;28;20578;-82
2021/10/03 06:46:41;;;;;;;1.40;0.80;;;17.30;89.30;;;;;;5002106;28;20200;-82
2021/10/03 06:49:08;;;;;;;0.20;0.20;;;17.40;89.30;;;;;;5001427;28;20254;-82
2021/10/03 06:51:35;;;;;;;0.40;0.40;;;17.50;89.40;;;;;;5009192;28;20616;-84
2021/10/03 06:54:04;;;;;;;0.30;0.27;;;17.50;89.40;;;;;;5020310;28;20298;-83
2021/10/03 06:56:31;;;;;;;0.63;0.60;;;17.60;89.60;;;;;;5018528;28;20253;-83
2021/10/03 06:58:59;;;;;;;0.30;0.30;;;17.70;89.60;;;;;;5019540;28;20234;-83
2021/10/03 07:01:26;;;;;;;0.30;0.30;;;17.80;89.60;;;;;;5017134;28;20212;-83
2021/10/03 07:03:53;;;;;;;1.90;0.97;;;17.90;89.60;;;;;;5016076;28;20581;-82
2021/10/03 07:06:20;;;;;;;0.93;0.93;;;18.00;89.60;;;;;;5016314;28;20263;-82
2021/10/03 07:08:48;;;;;;;6.57;1.50;;;18.10;89.50;;;;;;5015655;28;20244;-82
2021/10/03 07:11:15;;;;;;;0.60;0.60;;;18.20;89.50;;;;;;4998923;28;20208;-82
2021/10/03 07:13:43;;;;;;;3.07;1.87;;;18.30;89.50;;;;;;4990851;28;20213;-83
2021/10/03 07:16:12;;;;;;;0.80;0.80;;;18.40;89.30;;;;;;5001153;28;20267;-82
2021/10/03 07:18:39;;;;;;;0.50;0.50;;;18.50;89.00;;;;;;4998716;28;20235;-83
2021/10/03 07:21:06;;;;;;;0.70;0.70;;;18.60;88.90;;;;;;4999671;28;20299;-82
2021/10/03 07:23:33;;;;;;;1.67;1.07;;;18.80;88.90;;;;;;4999141;28;20231;-82
2021/10/03 07:26:00;;;;;;;5.03;1.70;;;18.90;88.70;;;;;;4999003;28;20304;-82
2021/10/03 07:28:28;;;;;;;1.10;1.10;;;19.10;88.30;;;;;;4999241;28;20571;-83
2021/10/03 07:30:55;;;;;;;1.90;1.80;;;19.20;88.30;;;;;;4999120;28;20208;-82
2021/10/03 07:33:23;;;;;;;0.87;0.87;;;19.40;88.10;;;;;;4998382;28;20219;-84
2021/10/03 07:35:50;;;;;;;5.10;1.63;;;19.60;87.40;;;;;;4998294;28;20216;-83
2021/10/03 07:38:17;;;;;;;0.40;0.40;;;19.90;87.00;;;;;;4999609;28;20208;-83
2021/10/03 07:40:45;;;;;;;2.23;1.43;;;20.00;86.50;;;;;;4998221;28;20221;-84
2021/10/03 07:43:12;;;;;;;3.80;3.50;;;20.20;86.00;;;;;;4998899;28;20278;-83
2021/10/03 07:45:40;;;;;;;2.00;1.27;;;20.30;85.00;;;;;;4997603;28;20223;-83
2021/10/03 07:48:07;;;;;;;1.50;1.40;;;20.40;85.00;;;;;;4998070;28;20216;-83
2021/10/03 07:50:34;;;;;;;1.63;1.53;;;20.50;84.70;;;;;;5002850;28;20235;-84
2021/10/03 07:53:01;;;;;;;1.47;1.37;;;20.70;84.90;;;;;;5019918;28;20688;-83
2021/10/03 07:55:28;;;;;;;1.30;1.20;;;20.90;83.90;;;;;;5017440;28;20226;-82
2021/10/03 07:58:03;;;;;;;0.30;0.30;;;21.00;83.50;;;;;;5004928;28;20696;-82
2021/10/03 08:00:31;;;;;;;1.67;1.57;;;21.20;83.70;;;;;;4979202;28;20712;-83
2021/10/03 08:02:59;;;;;;;1.60;1.50;;;21.40;83.00;;;;;;4987554;28;20828;-82
2021/10/03 08:05:27;;;;;;;0.90;0.77;;;21.70;82.40;;;;;;4999255;28;20259;-84
2021/10/03 08:07:54;;;;;;;1.83;1.57;;;21.80;81.00;;;;;;5021830;28;20243;-82
2021/10/03 08:10:21;;;;;;;0.77;0.77;;;22.00;80.80;;;;;;5019404;28;20212;-83
2021/10/03 08:12:49;;;;;;;0.60;0.60;;;22.10;80.00;;;;;;5011963;28;20219;-83
2021/10/03 08:15:16;;;;;;;0.93;0.50;;;22.20;79.50;;;;;;4999155;28;20216;-84
2021/10/03 08:17:43;;;;;;;2.80;1.50;;;22.30;79.40;;;;;;4999547;28;20263;-82
2021/10/03 08:20:15;;;;;;;0.50;0.50;;;22.50;79.10;;;;;;4999016;28;20212;-82
2021/10/03 08:22:42;;;;;;;1.47;1.37;;;22.60;78.50;;;;;;5006835;28;20212;-83
2021/10/03 08:25:09;;;;;;;1.00;1.00;;;22.80;78.40;;;;;;4999110;28;20243;-83
2021/10/03 08:27:37;;;;;;;0.87;0.87;;;23.00;77.50;;;;;;4999747;28;20212;-83
2021/10/03 08:30:07;;;;;;;2.63;1.97;;;23.20;76.80;;;;;;4999665;28;20208;-84
2021/10/03 08:32:34;;;;;;;0.70;0.70;;;23.40;76.50;;;;;;4999168;28;20213;-84
2021/10/03 08:35:02;;;;;;;1.93;1.73;;;23.60;75.70;;;;;;4998156;28;20233;-83
2021/10/03 08:37:30;;;;;;;1.40;1.40;;;23.70;74.50;;;;;;5010111;28;20229;-83
2021/10/03 08:39:59;;;;;;;1.83;1.73;;;23.80;74.70;;;;;;4991247;28;20231;-82
2021/10/03 08:42:27;;;;;;;0.47;0.47;;;23.90;73.30;;;;;;4979525;28;20221;-83
2021/10/03 08:44:54;;;;;;;1.03;1.03;;;24.00;72.90;;;;;;4982003;28;20283;-83
2021/10/03 08:47:25;;;;;;;3.67;1.33;;;24.20;72.00;;;;;;4997203;28;20228;-83
2021/10/03 08:49:55;;;;;;;2.23;0.93;;;24.30;71.80;;;;;;4983961;28;20219;-84
2021/10/03 08:52:24;;;;;;;1.47;1.33;;;24.50;71.00;;;;;;4994767;28;20216;-83
2021/10/03 08:54:52;;;;;;;1.40;1.30;;;24.60;68.70;;;;;;4988445;28;20216;-83
2021/10/03 08:57:19;;;;;;;1.57;1.43;;;24.50;69.20;;;;;;4990416;28;20264;-83
2021/10/03 09:00:05;;;;;;;1.57;0.97;;;24.50;69.60;;;;;;4999265;28;20239;-83
2021/10/03 09:03:02;;;;;;;1.37;0.67;;;24.60;69.50;;;;;;4999480;28;20247;-84
2021/10/03 09:05:36;;;;;;;0.50;0.50;;;24.80;69.20;;;;;;4999933;28;20237;-84
2021/10/03 09:08:16;;;;;;;1.33;1.20;;;25.10;68.70;;;;;;5000398;28;20204;-84
2021/10/03 09:10:53;;;;;;;1.73;1.43;;;25.30;68.30;;;;;;5013242;28;20246;-85
2021/10/03 09:13:40;;;;;;;0.93;0.93;;;25.50;66.30;;;;;;5008485;28;20304;-83
2021/10/03 09:16:40;;;;;;;0.40;0.40;;;25.50;66.50;;;;;;5000354;28;20228;-83
2021/10/03 09:19:13;;;;;;;0.30;0.30;;;25.70;66.00;;;;;;4991488;28;20204;-84
2021/10/03 09:21:52;;;;;;;1.90;1.60;;;25.80;65.90;;;;;;4993131;28;20220;-83
2021/10/03 09:24:43;;;;;;;0.83;0.83;;;25.90;66.00;;;;;;5002489;28;20339;-84
2021/10/03 09:27:10;;;;;;;0.30;0.30;;;25.90;64.60;;;;;;4988791;28;20216;-84
2021/10/03 09:29:38;;;;;;;0.70;0.40;;;25.90;64.00;;;;;;4988600;28;20227;-84
2021/10/03 09:32:14;;;;;;;0.73;0.63;;;26.00;63.70;;;;;;4992337;28;20213;-84
2021/10/03 09:34:50;;;;;;;0.20;0.20;;;26.00;64.10;;;;;;4990485;28;20216;-84
2021/10/03 09:37:22;;;;;;;2.00;0.73;;;26.10;63.10;;;;;;4992371;28;20641;-85
2021/10/03 09:40:01;;;;;;;0.40;0.40;;;26.20;62.60;;;;;;4989131;28;20649;-84
2021/10/03 09:42:28;;;;;;;0.60;0.60;;;26.30;62.90;;;;;;4998298;28;20235;-84
2021/10/03 09:45:12;;;;;;;0.70;0.70;;;26.50;61.40;;;;;;4988007;28;20243;-84
2021/10/03 09:47:42;;;;;;;0.10;0.10;;;26.70;61.20;;;;;;5015824;28;20279;-84
2021/10/03 09:50:11;;;;;;;0.87;0.87;;;26.80;61.30;;;;;;4986065;28;20224;-83
2021/10/03 09:52:40;;;;;;;1.67;1.40;;;26.90;60.40;;;;;;4988294;28;20224;-83
2021/10/03 09:55:13;;;;;;;2.77;0.83;;;27.10;59.50;;;;;;4984933;28;20227;-84
2021/10/03 09:57:43;;;;;;;0.47;0.47;;;27.10;58.60;;;;;;5002726;28;20700;-84
2021/10/03 10:00:12;;;;;;;0.87;0.87;;;27.20;58.20;;;;;;4979276;28;20296;-83
2021/10/03 10:02:40;;;;;;;0.60;0.43;;;27.30;57.00;;;;;;4992941;28;20220;-84
2021/10/03 10:05:07;;;;;;;0.53;0.53;;;27.40;57.20;;;;;;4978793;28;20568;-85
2021/10/03 10:07:36;;;;;;;0.97;0.40;;;27.50;56.90;;;;;;4987460;28;20231;-84
2021/10/03 10:10:07;;;;;;;0.50;0.50;;;27.50;55.20;;;;;;4995814;28;20568;-84
2021/10/03 10:12:42;;;;;;;0.50;0.50;;;27.60;55.40;;;;;;4998343;28;20208;-85
2021/10/03 10:15:12;;;;;;;0.50;0.50;;;27.70;54.20;;;;;;5010995;28;20216;-84
2021/10/03 10:17:42;;;;;;;0.40;0.40;;;27.90;54.00;;;;;;4987388;28;20248;-85
2021/10/03 10:20:20;;;;;;;0.67;0.47;;;28.00;54.00;;;;;;4986272;28;20216;-83
2021/10/03 10:23:15;;;;;;;0.20;0.20;;;28.10;53.10;;;;;;5009610;28;20212;-85
2021/10/03 10:25:52;;;;;;;0.50;0.50;;;28.10;52.90;;;;;;4987187;28;20243;-83
2021/10/03 10:28:29;;;;;;;1.67;0.80;;;28.20;52.80;;;;;;4986687;28;20211;-84
2021/10/03 10:31:13;;;;;;;1.80;1.57;;;28.30;51.70;;;;;;4998790;28;20223;-84
2021/10/03 10:33:56;;;;;;;0.60;0.60;;;28.30;51.90;;;;;;4978018;28;20201;-83
2021/10/03 10:36:29;;;;;;;0.17;0.17;;;28.40;51.80;;;;;;4993363;28;20217;-84
2021/10/03 10:39:09;;;;;;;0.50;0.50;;;28.40;51.80;;;;;;4984624;28;20304;-84
2021/10/03 10:41:42;;;;;;;0.23;0.23;;;28.50;51.10;;;;;;5001821;28;20255;-84
2021/10/03 10:44:27;;;;;;;0.13;0.13;;;28.50;51.20;;;;;;4992000;28;20287;-85
2021/10/03 10:47:14;;;;;;;0.37;0.37;;;28.60;50.60;;;;;;5002117;28;20604;-84
2021/10/03 10:49:47;;;;;;;0.33;0.30;;;28.70;50.50;;;;;;4983957;28;20275;-84
2021/10/03 10:52:25;;;;;;;0.50;0.50;;;28.70;50.10;;;;;;4991493;28;20263;-83
2021/10/03 10:54:59;;;;;;;0.60;0.60;;;28.70;49.90;;;;;;4982170;28;20213;-84
2021/10/03 10:57:28;;;;;;;1.23;1.07;;;28.60;49.50;;;;;;5008201;28;20244;-84
2021/10/03 11:00:22;;;;;;;0.40;0.40;;;28.60;49.50;;;;;;4978581;28;20575;-83
2021/10/03 11:02:49;;;;;;;0.83;0.83;;;28.60;49.30;;;;;;4982037;28;20217;-82
2021/10/03 11:05:34;;;;;;;0.67;0.57;;;28.70;49.50;;;;;;4985954;28;20559;-82
2021/10/03 11:08:21;;;;;;;1.10;0.97;;;28.70;48.90;;;;;;4986252;28;20625;-87
2021/10/03 11:11:00;;;;;;;0.23;0.23;;;28.60;48.00;;;;;;4996240;28;20204;-84
2021/10/03 11:13:44;;;;;;;0.53;0.37;;;28.60;48.80;;;;;;4997240;28;20215;-82
2021/10/03 11:16:35;;;;;;;0.97;0.83;;;28.50;48.90;;;;;;5003869;28;20224;-83
2021/10/03 11:19:11;;;;;;;0.87;0.87;;;28.50;48.50;;;;;;4981366;28;20224;-85
2021/10/03 11:21:39;;;;;;;0.93;0.53;;;28.50;48.80;;;;;;4984322;28;20205;-85
2021/10/03 11:24:09;;;;;;;2.70;0.80;;;28.60;49.10;;;;;;5000427;28;20209;-84
2021/10/03 11:27:03;;;;;;;0.30;0.30;;;28.70;48.50;;;;;;4993961;28;20228;-85
2021/10/03 11:29:37;;;;;;;0.87;0.87;;;28.80;49.00;;;;;;4987355;28;20219;-84
2021/10/03 11:32:17;;;;;;;0.47;0.40;;;28.90;48.40;;;;;;5000096;28;20232;-85
2021/10/03 11:34:51;;;;;;;0.80;0.80;;;28.90;48.30;;;;;;4994988;28;20200;-84
2021/10/03 11:37:39;;;;;;;0.43;0.43;;;28.90;48.20;;;;;;4987648;28;20259;-84
2021/10/03 11:40:12;;;;;;;0.60;0.57;;;28.90;48.30;;;;;;4985351;28;20210;-85
2021/10/03 11:42:58;;;;;;;0.40;0.40;;;29.00;48.50;;;;;;4982109;28;20252;-85
2021/10/03 11:45:40;;;;;;;1.73;1.30;;;29.10;48.30;;;;;;4985418;28;20652;-84
2021/10/03 11:48:09;;;;;;;0.40;0.20;;;28.80;48.60;;;;;;4996877;28;20204;-84
2021/10/03 11:50:50;;;;;;;0.60;0.60;;;28.60;48.70;;;;;;4991121;28;20660;-84
2021/10/03 11:53:28;;;;;;;1.30;1.13;;;28.40;49.60;;;;;;4993415;28;20563;-84
2021/10/03 11:56:15;;;;;;;0.43;0.43;;;28.60;49.40;;;;;;5000514;28;20216;-84
2021/10/03 11:58:45;;;;;;;0.80;0.80;;;28.90;49.10;;;;;;4987561;28;20542;-86
2021/10/03 12:01:12;;;;;;;0.53;0.53;;;29.10;47.00;;;;;;4993427;28;20221;-84
2021/10/03 12:03:48;;;;;;;1.60;0.40;;;29.10;47.50;;;;;;4986213;28;20244;-84
2021/10/03 12:06:17;;;;;;;0.60;0.50;;;28.90;47.70;;;;;;4978797;28;20860;-85
2021/10/03 12:08:46;;;;;;;0.13;0.13;;;28.70;48.20;;;;;;5003388;28;20221;-84
2021/10/03 12:11:15;;;;;;;0.30;0.30;;;28.90;48.40;;;;;;4990613;28;20217;-85
2021/10/03 12:14:01;;;;;;;0.50;0.50;;;29.10;47.70;;;;;;4987529;28;20213;-83
2021/10/03 12:16:29;;;;;;;0.60;0.37;;;29.30;47.70;;;;;;4993423;28;20631;-86
2021/10/03 12:19:02;;;;;;;0.60;0.60;;;29.50;47.20;;;;;;4992802;28;20216;-85
2021/10/03 12:21:34;;;;;;;0.43;0.43;;;29.60;46.90;;;;;;4994222;28;20705;-85
2021/10/03 12:24:03;;;;;;;0.23;0.23;;;29.40;46.80;;;;;;4993826;28;20229;-83
2021/10/03 12:26:32;;;;;;;0.77;0.77;;;29.10;47.50;;;;;;5019011;28;20242;-85
2021/10/03 12:29:18;;;;;;;1.60;1.23;;;28.80;48.10;;;;;;5014509;28;20204;-86
2021/10/03 12:31:56;;;;;;;1.03;0.93;;;28.60;48.70;;;;;;4997376;28;20214;-85
2021/10/03 12:34:23;;;;;;;0.50;0.50;;;28.50;49.10;;;;;;5001581;28;20556;-84
2021/10/03 12:37:15;;;;;;;0.93;0.77;;;28.40;49.00;;;;;;5008950;28;20691;-86
2021/10/03 12:39:46;;;;;;;1.63;0.63;;;28.20;48.70;;;;;;4981647;28;20291;-84
2021/10/03 12:42:19;;;;;;;0.70;0.70;;;28.10;48.90;;;;;;4986683;28;20228;-86
2021/10/03 12:44:48;;;;;;;0.87;0.87;;;28.00;49.30;;;;;;4999110;28;20637;-86
2021/10/03 12:47:18;;;;;;;1.33;1.23;;;28.00;48.70;;;;;;4986471;28;20208;-86
2021/10/03 12:49:46;;;;;;;0.57;0.57;;;27.80;49.00;;;;;;4988354;28;20267;-85
2021/10/03 12:52:15;;;;;;;0.50;0.50;;;27.80;49.60;;;;;;4984199;28;20276;-85
2021/10/03 12:54:46;;;;;;;1.20;1.13;;;28.00;49.60;;;;;;4984363;28;20224;-85
2021/10/03 12:57:15;;;;;;;1.83;1.33;;;28.20;48.90;;;;;;4998751;28;20308;-86
2021/10/03 12:59:43;;;;;;;1.33;0.87;;;28.30;49.10;;;;;;4995884;28;20594;-85
2021/10/03 13:02:11;;;;;;;0.33;0.33;;;28.20;49.10;;;;;;4983221;28;20212;-85
2021/10/03 13:04:58;;;;;;;0.23;0.23;;;28.10;48.90;;;;;;4988283;28;20237;-85